Time;durP1;ratioP1;P1;durP2;ratioP2;P2;SDS_P1;SDS_P2;PMS_P1;PMS_P2;Temp;Humidity;BMP_temperature;BMP_pressure;BME280_temperature;BME280_humidity;BME280_pressure;Samples;Min_cycle;Max_cycle;Signal;HPM_P1;HPM_P2
2021/06/02 00:00:14;;;;;;;;;9.00;9.00;;;;;25.92;35.44;100671.84;5059331;28;45237;-83
2021/06/02 00:02:44;;;;;;;;;10.00;10.00;;;;;25.94;35.14;100671.78;5059610;28;45722;-83
2021/06/02 00:05:12;;;;;;;;;9.25;9.25;;;;;25.90;35.62;100667.47;5060138;28;45548;-83
2021/06/02 00:07:40;;;;;;;;;10.50;9.50;;;;;25.90;35.12;100670.13;5060163;28;45404;-83
2021/06/02 00:10:09;;;;;;;;;8.00;8.00;;;;;25.92;35.85;100681.56;5062560;28;45319;-83
2021/06/02 00:12:35;;;;;;;;;9.75;8.25;;;;;25.91;35.51;100669.22;5063844;28;45567;-83
2021/06/02 00:15:06;;;;;;;;;9.00;9.00;;;;;25.87;36.06;100660.44;5064802;28;45312;-83
2021/06/02 00:17:32;;;;;;;;;8.50;8.00;;;;;25.87;35.53;100680.81;5059207;28;45551;-83
2021/06/02 00:19:58;;;;;;;;;8.50;7.00;;;;;25.79;36.15;100660.63;5057775;28;45480;-83
2021/06/02 00:22:24;;;;;;;;;10.00;9.75;;;;;25.79;36.01;100673.00;5058314;28;45230;-83
2021/06/02 00:24:50;;;;;;;;;12.00;9.25;;;;;25.76;35.36;100681.91;5057961;28;45290;-83
2021/06/02 00:27:16;;;;;;;;;10.75;10.25;;;;;25.71;35.55;100672.28;5058356;28;45337;-83
2021/06/02 00:29:44;;;;;;;;;7.50;7.50;;;;;25.67;35.53;100676.78;5061078;28;45382;-83
2021/06/02 00:32:12;;;;;;;;;7.50;7.50;;;;;25.59;35.80;100670.78;5058414;28;45679;-83
2021/06/02 00:34:38;;;;;;;;;6.50;6.50;;;;;25.55;36.09;100674.38;5058481;28;46125;-83
2021/06/02 00:37:06;;;;;;;;;10.25;8.75;;;;;25.49;35.96;100675.38;5056883;28;45311;-83
2021/06/02 00:39:32;;;;;;;;;7.00;7.00;;;;;25.47;36.26;100675.41;5057984;28;45393;-83
2021/06/02 00:41:59;;;;;;;;;9.75;8.00;;;;;25.43;36.24;100686.09;5057647;28;45650;-83
2021/06/02 00:44:25;;;;;;;;;10.00;8.25;;;;;25.39;36.32;100687.88;5058131;28;46037;-83
2021/06/02 00:46:56;;;;;;;;;9.50;9.00;;;;;25.39;36.66;100685.22;5057602;28;45660;-82
2021/06/02 00:49:24;;;;;;;;;9.00;9.00;;;;;25.36;36.44;100687.97;5057722;28;45433;-82
2021/06/02 00:51:57;;;;;;;;;9.50;8.00;;;;;25.35;36.23;100686.22;5058136;28;45358;-83
2021/06/02 00:54:25;;;;;;;;;9.00;9.00;;;;;25.27;36.14;100672.25;5057275;28;45906;-82
2021/06/02 00:56:53;;;;;;;;;11.00;9.50;;;;;25.28;36.55;100669.53;5057764;28;45426;-82
2021/06/02 00:59:28;;;;;;;;;9.00;8.75;;;;;25.18;36.78;100679.44;5057709;28;45394;-82
2021/06/02 01:01:54;;;;;;;;;9.50;9.25;;;;;25.18;36.63;100674.13;5059088;28;45292;-83
2021/06/02 01:04:24;;;;;;;;;8.25;8.25;;;;;25.16;36.33;100675.94;5058404;28;45290;-82
2021/06/02 01:06:51;;;;;;;;;7.25;6.75;;;;;25.15;36.63;100670.66;5057692;28;45883;-83
2021/06/02 01:09:20;;;;;;;;;7.75;7.75;;;;;25.15;37.04;100681.25;5057274;28;45185;-82
2021/06/02 01:11:48;;;;;;;;;10.00;9.00;;;;;25.10;37.26;100669.91;5057639;28;45306;-82
2021/06/02 01:14:15;;;;;;;;;10.25;9.00;;;;;25.05;37.30;100664.69;5056591;28;46064;-83
2021/06/02 01:16:41;;;;;;;;;7.75;7.75;;;;;25.00;37.13;100650.63;5057207;28;45347;-83
2021/06/02 01:19:10;;;;;;;;;9.25;7.75;;;;;24.99;36.96;100656.81;5056845;28;45280;-82
2021/06/02 01:21:50;;;;;;;;;8.75;8.75;;;;;25.01;36.84;100660.31;5057407;28;45497;-82
2021/06/02 01:24:16;;;;;;;;;7.25;7.25;;;;;24.94;37.36;100654.25;5057798;28;45422;-82
2021/06/02 01:26:42;;;;;;;;;10.00;9.00;;;;;24.90;37.07;100646.41;5058420;28;45190;-83
2021/06/02 01:29:08;;;;;;;;;10.50;10.50;;;;;24.87;37.01;100642.03;5057518;28;45329;-82
2021/06/02 01:31:42;;;;;;;;;8.50;8.50;;;;;24.87;37.13;100650.84;5057201;28;45554;-82
2021/06/02 01:34:46;;;;;;;;;11.00;10.00;;;;;24.79;37.79;100654.50;5057234;28;45418;-83
2021/06/02 01:37:56;;;;;;;;;8.00;8.00;;;;;24.75;37.67;100644.88;5059143;28;45741;-83
2021/06/02 01:40:40;;;;;;;;;10.00;9.00;;;;;24.75;37.48;100652.84;5057226;28;45366;-83
2021/06/02 01:43:45;;;;;;;;;11.50;10.00;;;;;24.65;38.05;100663.53;5057152;28;45342;-83
2021/06/02 01:46:33;;;;;;;;;9.75;8.50;;;;;24.64;37.77;100664.44;5064030;28;46321;-83
2021/06/02 01:49:33;;;;;;;;;9.25;8.50;;;;;24.62;37.72;100665.38;5083422;28;44957;-81
2021/06/02 01:52:41;;;;;;;;;6.00;6.00;;;;;24.55;37.93;100660.16;5078983;28;45350;-82
2021/06/02 01:56:07;;;;;;;;;10.00;10.00;;;;;24.53;37.74;100661.09;5059807;28;45524;-83
2021/06/02 01:58:51;;;;;;;;;11.50;10.00;;;;;24.50;37.95;100659.38;5034293;28;45540;-82
2021/06/02 02:01:51;;;;;;;;;10.00;9.00;;;;;24.48;38.08;100657.63;5056765;28;45437;-82
2021/06/02 02:04:41;;;;;;;;;9.00;9.00;;;;;24.45;38.14;100665.63;5055183;28;45270;-82
2021/06/02 02:07:21;;;;;;;;;10.25;10.25;;;;;24.41;38.37;100656.84;5036666;28;45323;-82
2021/06/02 02:10:18;;;;;;;;;11.25;9.25;;;;;24.41;38.35;100672.72;5036972;28;45329;-82
2021/06/02 02:12:52;;;;;;;;;11.00;8.00;;;;;24.34;38.27;100661.38;5054390;28;45783;-82
2021/06/02 02:15:42;;;;;;;;;13.25;10.25;;;;;24.36;38.41;100664.00;5056330;28;45389;-82
2021/06/02 02:18:39;;;;;;;;;9.00;9.00;;;;;24.29;38.42;100668.50;5056476;28;45318;-82
2021/06/02 02:21:27;;;;;;;;;9.25;9.00;;;;;24.29;38.57;100665.84;5056059;28;46473;-82
2021/06/02 02:24:17;;;;;;;;;11.50;10.00;;;;;24.25;38.61;100651.78;5056311;28;45835;-82
2021/06/02 02:27:11;;;;;;;;;8.50;8.25;;;;;24.22;38.55;100657.13;5056236;28;45319;-82
2021/06/02 02:30:04;;;;;;;;;10.25;10.00;;;;;24.24;38.68;100665.91;5036544;28;45365;-82
2021/06/02 02:32:55;;;;;;;;;10.50;9.00;;;;;24.15;39.21;100673.97;5056076;28;45671;-82
2021/06/02 02:35:51;;;;;;;;;10.75;10.75;;;;;24.18;38.70;100666.00;5056006;28;45377;-82
2021/06/02 02:38:49;;;;;;;;;11.75;10.00;;;;;24.19;38.91;100669.53;5055642;28;45416;-82
2021/06/02 02:41:48;;;;;;;;;10.25;10.00;;;;;24.16;38.69;100669.56;5056291;28;45266;-82
2021/06/02 02:44:24;;;;;;;;;13.50;10.75;;;;;24.10;39.34;100666.13;5055760;28;45381;-81
2021/06/02 02:47:24;;;;;;;;;9.50;8.25;;;;;24.12;38.94;100671.38;5056230;28;45717;-81
2021/06/02 02:50:27;;;;;;;;;11.75;11.00;;;;;24.09;39.56;100672.31;5055949;28;45285;-81
2021/06/02 02:53:19;;;;;;;;;11.00;9.25;;;;;24.01;39.51;100666.25;5056134;28;45291;-81
2021/06/02 02:55:48;;;;;;;;;11.25;11.25;;;;;23.99;39.41;100662.75;5055551;28;45615;-81
2021/06/02 02:58:36;;;;;;;;;10.25;10.25;;;;;23.96;39.44;100676.00;5055313;28;45344;-81
2021/06/02 03:01:20;;;;;;;;;11.75;11.25;;;;;23.95;39.50;100659.25;5054883;28;45499;-81
2021/06/02 03:04:03;;;;;;;;;10.50;10.50;;;;;23.97;40.03;100663.66;5056081;28;45359;-82
2021/06/02 03:06:39;;;;;;;;;14.00;10.75;;;;;23.97;39.55;100658.38;5055992;28;45287;-82
2021/06/02 03:09:11;;;;;;;;;8.25;8.25;;;;;23.91;39.62;100661.94;5055445;28;45298;-81
2021/06/02 03:11:56;;;;;;;;;9.75;9.50;;;;;23.90;39.77;100660.19;5055897;28;45402;-81
2021/06/02 03:14:35;;;;;;;;;10.75;10.00;;;;;23.84;39.71;100661.13;5056193;28;45406;-81
2021/06/02 03:17:12;;;;;;;;;12.50;11.25;;;;;23.88;39.81;100662.84;5056669;28;46252;-82
2021/06/02 03:19:59;;;;;;;;;9.25;8.25;;;;;23.89;39.80;100672.50;5055924;28;45493;-82
2021/06/02 03:22:56;;;;;;;;;13.50;10.50;;;;;23.81;39.90;100672.59;5056281;28;45449;-82
2021/06/02 03:25:48;;;;;;;;;9.75;9.25;;;;;23.78;40.06;100677.06;5056004;28;45415;-81
2021/06/02 03:28:41;;;;;;;;;10.50;10.50;;;;;23.74;40.23;100672.72;5054524;28;45529;-81
2021/06/02 03:31:25;;;;;;;;;10.50;10.50;;;;;23.72;40.25;100674.50;5054956;28;45488;-81
2021/06/02 03:34:09;;;;;;;;;10.00;10.00;;;;;23.69;40.54;100678.06;5055042;28;45256;-81
2021/06/02 03:36:59;;;;;;;;;12.00;12.00;;;;;23.70;40.13;100665.72;5055715;28;45363;-82
2021/06/02 03:39:42;;;;;;;;;9.00;9.00;;;;;23.69;40.21;100666.59;5055471;28;45961;-81
2021/06/02 03:42:41;;;;;;;;;8.25;8.00;;;;;23.65;40.00;100663.13;5055039;28;45367;-81
2021/06/02 03:45:38;;;;;;;;;11.25;10.25;;;;;23.59;40.46;100660.56;5055023;28;45310;-82
2021/06/02 03:48:47;;;;;;;;;9.00;9.00;;;;;23.52;40.32;100651.84;5054225;28;45353;-81
2021/06/02 03:51:40;;;;;;;;;11.00;10.00;;;;;23.56;40.21;100671.16;5023123;28;45574;-82
2021/06/02 03:54:22;;;;;;;;;10.75;9.25;;;;;23.60;40.46;100675.50;5046030;28;45529;-81
2021/06/02 03:57:05;;;;;;;;;9.00;8.00;;;;;23.57;40.80;100670.28;5035014;28;45396;-81
2021/06/02 04:00:03;;;;;;;;;8.75;8.75;;;;;23.56;40.60;100660.59;5035207;28;45396;-82
2021/06/02 04:02:54;;;;;;;;;10.25;8.50;;;;;23.53;40.45;100663.25;5053445;28;46371;-81
2021/06/02 04:05:46;;;;;;;;;12.75;9.25;;;;;23.53;40.36;100665.91;5054950;28;45899;-82
2021/06/02 04:08:33;;;;;;;;;12.25;10.50;;;;;23.52;40.63;100665.03;5054800;28;45445;-82
2021/06/02 04:10:59;;;;;;;;;10.25;10.00;;;;;23.51;40.82;100673.88;5057489;28;45457;-83
2021/06/02 04:13:58;;;;;;;;;10.50;8.00;;;;;23.47;41.26;100665.09;5059628;28;45968;-85
2021/06/02 04:16:28;;;;;;;;;10.50;8.50;;;;;23.45;40.92;100676.56;5058762;28;45824;-84
2021/06/02 04:18:59;;;;;;;;;11.25;10.00;;;;;23.45;41.45;100677.44;5059006;28;45909;-82
2021/06/02 04:21:25;;;;;;;;;12.00;10.50;;;;;23.48;41.04;100679.16;5060188;28;45471;-84
2021/06/02 04:23:53;;;;;;;;;12.50;10.50;;;;;23.49;40.78;100670.34;5059940;28;46331;-81
2021/06/02 04:26:20;;;;;;;;;11.00;8.75;;;;;23.44;40.86;100673.06;5057913;28;45358;-81
2021/06/02 04:28:47;;;;;;;;;10.00;8.75;;;;;23.47;40.79;100686.25;5056954;28;45390;-82
2021/06/02 04:31:15;;;;;;;;;12.75;11.00;;;;;23.40;40.84;100663.41;5059136;28;45442;-80
2021/06/02 04:33:42;;;;;;;;;12.00;10.00;;;;;23.39;41.10;100677.50;5060028;28;45255;-80
2021/06/02 04:36:11;;;;;;;;;10.00;10.00;;;;;23.41;40.95;100683.66;5057840;28;45269;-81
2021/06/02 04:38:37;;;;;;;;;11.50;11.50;;;;;23.39;41.04;100682.78;5057568;28;45453;-82
2021/06/02 04:41:06;;;;;;;;;11.75;11.00;;;;;23.39;41.30;100684.56;5058111;28;46326;-80
2021/06/02 04:43:34;;;;;;;;;6.50;6.50;;;;;23.36;41.07;100684.59;5058245;28;45340;-82
2021/06/02 04:46:02;;;;;;;;;10.50;10.50;;;;;23.34;41.16;100676.69;5058165;28;45832;-82
2021/06/02 04:48:28;;;;;;;;;11.25;10.25;;;;;23.36;41.34;100681.94;5047670;28;45650;-84
2021/06/02 04:51:23;;;;;;;;;13.25;12.00;;;;;23.33;41.32;100673.16;5058684;28;45288;-82
2021/06/02 04:54:15;;;;;;;;;12.25;10.25;;;;;23.30;41.59;100680.25;5068185;28;45457;-82
2021/06/02 04:57:08;;;;;;;;;11.75;9.00;;;;;23.33;41.43;100678.44;5065049;28;45412;-84
2021/06/02 05:00:16;;;;;;;;;11.75;10.25;;;;;23.34;41.22;100680.19;5058358;28;45470;-82
2021/06/02 05:02:57;;;;;;;;;9.25;9.00;;;;;23.34;41.68;100681.97;5057955;28;45626;-83
2021/06/02 05:05:35;;;;;;;;;10.25;9.75;;;;;23.36;41.69;100677.56;5057209;28;45513;-84
2021/06/02 05:08:18;;;;;;;;;15.00;12.00;;;;;23.34;41.41;100692.53;5058339;28;45901;-83
2021/06/02 05:11:21;;;;;;;;;14.00;11.00;;;;;23.31;41.72;100688.16;5060963;28;45405;-84
2021/06/02 05:14:15;;;;;;;;;9.50;8.50;;;;;23.29;41.70;100681.13;5057960;28;45633;-84
2021/06/02 05:17:17;;;;;;;;;12.25;12.25;;;;;23.32;42.05;100687.25;5057534;28;46465;-83
2021/06/02 05:20:01;;;;;;;;;14.00;12.50;;;;;23.32;41.61;100689.03;5057579;28;45325;-84
2021/06/02 05:22:58;;;;;;;;;13.25;11.25;;;;;23.28;41.92;100690.84;5060131;28;45421;-85
2021/06/02 05:25:51;;;;;;;;;10.00;10.00;;;;;23.27;42.01;100699.63;5077449;28;45298;-83
2021/06/02 05:28:47;;;;;;;;;12.00;12.00;;;;;23.23;42.11;100703.19;5083956;28;45466;-81
2021/06/02 05:31:37;;;;;;;;;13.75;12.75;;;;;23.25;42.50;100711.13;5059673;28;45333;-83
2021/06/02 05:34:19;;;;;;;;;12.25;11.00;;;;;23.26;41.92;100707.59;5064134;28;45389;-84
2021/06/02 05:37:19;;;;;;;;;15.75;13.50;;;;;23.25;42.43;100717.25;5058021;28;45192;-83
2021/06/02 05:40:03;;;;;;;;;16.75;14.50;;;;;23.27;42.63;100717.28;5056741;28;45441;-81
2021/06/02 05:42:50;;;;;;;;;13.25;11.50;;;;;23.23;42.36;100710.25;5054394;28;45563;-81
2021/06/02 05:45:41;;;;;;;;;12.75;12.50;;;;;23.25;42.91;100722.53;5057259;28;45457;-81
2021/06/02 05:48:42;;;;;;;;;12.00;11.00;;;;;23.27;42.65;100725.19;5039033;28;45473;-80
2021/06/02 05:51:39;;;;;;;;;12.00;12.00;;;;;23.27;43.03;100715.50;5072906;28;45487;-79
2021/06/02 05:54:35;;;;;;;;;10.25;10.25;;;;;23.29;43.09;100724.28;5065522;28;45539;-84
2021/06/02 05:57:10;;;;;;;;;11.25;10.00;;;;;23.29;43.12;100723.38;5057978;28;45277;-84
2021/06/02 06:00:00;;;;;;;;;13.50;12.00;;;;;23.40;43.52;100724.16;5057846;28;45284;-86
2021/06/02 06:02:31;;;;;;;;;13.75;11.25;;;;;23.46;43.72;100713.56;5057877;28;46145;-88
2021/06/02 06:04:57;;;;;;;;;12.50;11.75;;;;;23.55;44.04;100722.28;5057596;28;45336;-79
2021/06/02 06:07:52;;;;;;;;;11.00;10.00;;;;;23.58;43.23;100735.47;5056337;28;45319;-82
2021/06/02 06:10:55;;;;;;;;;10.50;10.50;;;;;23.58;44.02;100732.81;5063918;28;45580;-80
2021/06/02 06:13:58;;;;;;;;;11.25;11.00;;;;;23.55;44.04;100736.34;5055590;28;46392;-84
2021/06/02 06:16:29;;;;;;;;;14.50;11.25;;;;;23.61;43.92;100727.47;5056218;28;45766;-79
2021/06/02 06:19:13;;;;;;;;;12.00;12.00;;;;;23.68;44.16;100715.97;5058293;28;45339;-82
2021/06/02 06:22:14;;;;;;;;;12.00;10.50;;;;;23.76;43.80;100718.50;5054679;28;45587;-86
2021/06/02 06:24:58;;;;;;;;;10.25;10.25;;;;;23.80;43.89;100723.75;5040324;28;45418;-81
2021/06/02 06:27:35;;;;;;;;;12.50;12.50;;;;;23.83;44.07;100733.41;5058370;28;45321;-87
2021/06/02 06:30:05;;;;;;;;;11.25;10.50;;;;;23.80;44.38;100717.59;5075763;28;45351;-88
2021/06/02 06:32:34;;;;;;;;;12.00;10.75;;;;;23.86;44.60;100729.84;5064125;27;45276;-85
2021/06/02 06:35:02;;;;;;;;;10.25;10.25;;;;;23.85;44.45;100725.47;5061036;27;47695;-82
2021/06/02 06:37:36;;;;;;;;;15.25;14.00;;;;;23.81;44.35;100727.25;5059566;28;45780;-85
2021/06/02 06:40:12;;;;;;;;;12.00;11.25;;;;;23.77;44.95;100730.81;5054772;28;45486;-85
2021/06/02 06:42:50;;;;;;;;;11.75;11.75;;;;;23.72;44.55;100727.38;5078888;28;45457;-85
2021/06/02 06:45:33;;;;;;;;;14.75;12.50;;;;;23.76;45.08;100739.66;5072821;28;45716;-86
2021/06/02 06:48:02;;;;;;;;;14.25;13.00;;;;;23.73;45.08;100740.56;5056961;28;45874;-82
2021/06/02 06:50:28;;;;;;;;;16.00;16.00;;;;;23.70;46.08;100731.78;5054201;28;45561;-77
2021/06/02 06:52:57;;;;;;;;;18.50;12.75;;;;;23.72;45.71;100733.53;5055785;28;45298;-81
2021/06/02 06:55:24;;;;;;;;;16.00;16.00;;;;;23.71;45.71;100734.41;5053209;28;46099;-80
2021/06/02 06:57:51;;;;;;;;;14.75;13.75;;;;;23.68;46.02;100726.53;5056235;28;45481;-79
2021/06/02 07:00:18;;;;;;;;;13.75;13.50;;;;;23.70;46.32;100731.78;5058445;28;45564;-81
2021/06/02 07:02:44;;;;;;;;;21.50;18.25;;;;;23.72;46.29;100724.72;5056462;28;45315;-79
2021/06/02 07:05:12;;;;;;;;;21.00;15.50;;;;;23.75;46.53;100722.91;5055642;28;45256;-79
2021/06/02 07:07:41;;;;;;;;;15.50;14.00;;;;;23.75;46.59;100730.00;5062461;28;46020;-83
2021/06/02 07:10:10;;;;;;;;;15.00;14.00;;;;;23.75;46.41;100722.06;5056201;28;45516;-90
2021/06/02 07:12:38;;;;;;;;;13.25;12.75;;;;;23.79;46.33;100722.00;5056958;28;45415;-80
2021/06/02 07:15:07;;;;;;;;;15.00;14.50;;;;;23.92;46.41;100735.06;5058166;28;46205;-85
2021/06/02 07:17:38;;;;;;;;;18.00;15.75;;;;;23.99;46.26;100736.78;5060078;28;45362;-89
2021/06/02 07:20:09;;;;;;;;;17.50;15.50;;;;;23.91;46.42;100717.47;5058197;28;45345;-88
2021/06/02 07:22:42;;;;;;;;;19.25;18.75;;;;;23.94;46.31;100730.63;5059144;28;45560;-85
2021/06/02 07:25:10;;;;;;;;;18.00;16.50;;;;;23.94;46.71;100739.47;5060767;28;45443;-88
2021/06/02 07:27:36;;;;;;;;;20.00;19.00;;;;;24.03;46.76;100753.50;5063043;28;46089;-87
2021/06/02 07:30:04;;;;;;;;;17.50;15.00;;;;;24.03;46.33;100751.69;5078851;28;44701;-83
2021/06/02 07:32:30;;;;;;;;;22.25;17.75;;;;;24.11;47.19;100749.88;5081071;28;44911;-81
2021/06/02 07:34:56;;;;;;;;;16.50;15.75;;;;;24.14;47.11;100748.06;5068378;28;45439;-89
2021/06/02 07:37:21;;;;;;;;;18.50;18.50;;;;;24.13;47.07;100749.84;5066320;28;45784;-88
2021/06/02 07:39:47;;;;;;;;;17.50;16.00;;;;;24.09;46.93;100737.53;5062379;28;45249;-88
2021/06/02 07:42:13;;;;;;;;;18.50;15.50;;;;;24.10;47.10;100734.00;5060896;28;45608;-88
2021/06/02 07:44:38;;;;;;;;;22.50;16.50;;;;;24.18;47.06;100747.13;5059943;28;45347;-85
2021/06/02 07:47:04;;;;;;;;;18.25;16.00;;;;;24.22;47.28;100743.56;5062600;28;45238;-85
2021/06/02 07:49:30;;;;;;;;;18.50;16.00;;;;;24.24;47.04;100742.63;5064456;28;45470;-82
2021/06/02 07:51:59;;;;;;;;;14.50;13.50;;;;;24.25;46.85;100760.25;5066158;28;45394;-85
2021/06/02 07:54:26;;;;;;;;;17.25;16.00;;;;;24.27;47.01;100747.00;5065315;28;46472;-86
2021/06/02 07:56:52;;;;;;;;;15.50;15.50;;;;;24.35;46.73;100761.00;5046526;28;45434;-84
2021/06/02 07:59:17;;;;;;;;;16.25;16.25;;;;;24.27;46.96;100739.97;5066892;28;45336;-85
2021/06/02 08:01:43;;;;;;;;;18.00;17.25;;;;;24.33;47.23;100746.94;5068154;28;45208;-87
2021/06/02 08:04:09;;;;;;;;;19.00;18.25;;;;;24.45;47.76;100764.41;5059485;28;47261;-80
2021/06/02 08:06:36;;;;;;;;;19.00;17.50;;;;;24.47;47.68;100770.56;5061192;28;45205;-85
2021/06/02 08:09:03;;;;;;;;;18.75;18.25;;;;;24.47;47.37;100773.22;5062318;28;45523;-78
2021/06/02 08:11:28;;;;;;;;;17.25;16.25;;;;;24.48;48.05;100760.84;5058644;28;45323;-80
2021/06/02 08:13:54;;;;;;;;;16.50;16.50;;;;;24.52;47.95;100773.16;5059380;28;45927;-77
2021/06/02 08:16:20;;;;;;;;;18.50;16.00;;;;;24.51;48.25;100768.75;5057827;28;45401;-79
2021/06/02 08:18:45;;;;;;;;;18.00;16.50;;;;;24.54;48.54;100760.78;5059017;28;45364;-81
2021/06/02 08:21:11;;;;;;;;;15.25;14.00;;;;;24.54;48.09;100760.78;5067488;28;45360;-83
2021/06/02 08:23:36;;;;;;;;;15.75;14.25;;;;;24.60;49.04;100762.47;5060939;28;45426;-82
2021/06/02 08:26:02;;;;;;;;;15.25;15.25;;;;;24.70;48.52;100778.19;5058760;28;45347;-84
2021/06/02 08:28:28;;;;;;;;;16.25;15.75;;;;;24.72;47.88;100775.56;5061811;28;45211;-82
2021/06/02 08:30:54;;;;;;;;;16.75;12.50;;;;;24.75;48.14;100775.50;5057732;28;45636;-81
2021/06/02 08:33:19;;;;;;;;;16.50;16.50;;;;;24.76;48.08;100782.53;5057789;28;46186;-81
2021/06/02 08:35:45;;;;;;;;;18.50;18.00;;;;;24.77;48.87;100779.00;5058498;28;45469;-86
2021/06/02 08:38:11;;;;;;;;;16.00;16.00;;;;;24.82;48.53;100786.88;5059690;28;45332;-86
2021/06/02 08:40:37;;;;;;;;;16.25;16.00;;;;;24.77;48.86;100783.44;5062260;28;45256;-86
2021/06/02 08:43:03;;;;;;;;;17.50;15.75;;;;;24.89;48.54;100788.50;5061397;28;45395;-86
2021/06/02 08:45:29;;;;;;;;;16.25;15.00;;;;;24.94;48.56;100786.69;5059495;28;45409;-84
2021/06/02 08:47:54;;;;;;;;;17.00;16.00;;;;;24.98;48.26;100783.09;5060826;28;45375;-81
2021/06/02 08:50:21;;;;;;;;;18.25;17.75;;;;;25.04;48.49;100788.28;5070167;28;45401;-82
2021/06/02 08:52:48;;;;;;;;;15.00;14.50;;;;;25.06;48.36;100790.91;5081781;28;45009;-83
2021/06/02 08:55:17;;;;;;;;;17.00;15.75;;;;;25.10;48.42;100797.06;5084153;28;44918;-83
2021/06/02 08:57:44;;;;;;;;;16.25;16.00;;;;;25.11;48.34;100785.53;5072252;28;45327;-83
2021/06/02 09:00:13;;;;;;;;;18.50;18.50;;;;;25.12;49.23;100779.34;5066440;28;45330;-83
2021/06/02 09:02:45;;;;;;;;;17.75;16.50;;;;;25.15;48.72;100785.47;5061493;28;46297;-86
2021/06/02 09:05:13;;;;;;;;;17.25;16.75;;;;;25.15;48.56;100788.13;5058700;28;45874;-82
2021/06/02 09:07:40;;;;;;;;;15.25;15.25;;;;;25.17;48.83;100798.69;5057723;28;45311;-83
2021/06/02 09:10:11;;;;;;;;;14.75;13.50;;;;;25.16;48.34;100792.50;5058692;28;45493;-84
2021/06/02 09:12:41;;;;;;;;;17.50;16.00;;;;;25.25;48.51;100783.53;5057965;28;45690;-82
2021/06/02 09:15:12;;;;;;;;;13.75;13.75;;;;;25.30;48.66;100794.94;5057004;28;45596;-83
2021/06/02 09:17:57;;;;;;;;;17.00;14.50;;;;;25.42;48.83;100783.28;5060506;28;45286;-83
2021/06/02 09:20:36;;;;;;;;;17.75;15.00;;;;;25.52;48.43;100772.50;5062605;28;45413;-83
2021/06/02 09:23:34;;;;;;;;;15.50;15.50;;;;;25.61;48.31;100788.25;5057946;28;45907;-85
2021/06/02 09:26:25;;;;;;;;;12.50;12.50;;;;;25.69;48.50;100785.47;5058228;27;45429;-83
2021/06/02 09:29:04;;;;;;;;;15.50;14.25;;;;;25.75;48.49;100788.03;5062778;28;45359;-84
2021/06/02 09:31:44;;;;;;;;;14.25;14.00;;;;;25.79;48.02;100782.63;5058911;28;45389;-84
2021/06/02 09:34:23;;;;;;;;;17.00;17.00;;;;;25.85;47.69;100783.41;5057530;28;46307;-86
2021/06/02 09:36:52;;;;;;;;;15.25;14.00;;;;;25.92;47.62;100785.00;5061669;28;45298;-84
2021/06/02 09:39:21;;;;;;;;;15.25;13.50;;;;;26.00;47.79;100785.75;5061818;28;45286;-86
2021/06/02 09:41:53;;;;;;;;;15.75;14.25;;;;;26.08;47.71;100782.94;5059989;28;45378;-85
2021/06/02 09:44:29;;;;;;;;;15.50;14.00;;;;;26.18;46.72;100789.84;5062731;28;46360;-83
2021/06/02 09:47:07;;;;;;;;;13.25;12.25;;;;;26.31;46.68;100797.53;5062488;28;45839;-83
2021/06/02 09:49:53;;;;;;;;;16.50;16.50;;;;;26.41;46.43;100791.13;5059836;28;45433;-84
2021/06/02 09:52:38;;;;;;;;;13.50;13.50;;;;;26.46;46.28;100789.25;5061667;28;45397;-83
2021/06/02 09:55:14;;;;;;;;;13.50;13.00;;;;;26.52;46.43;100781.16;5057085;28;47228;-84
2021/06/02 09:57:40;;;;;;;;;13.75;13.50;;;;;26.55;46.97;100783.75;5060042;28;45389;-84
2021/06/02 10:00:08;;;;;;;;;18.00;17.75;;;;;26.62;47.11;100789.78;5061201;28;45323;-84
2021/06/02 10:02:34;;;;;;;;;14.00;13.25;;;;;26.64;46.62;100789.75;5058680;28;45622;-84
2021/06/02 10:05:03;;;;;;;;;13.50;12.75;;;;;26.69;46.02;100796.69;5056654;28;45316;-87
2021/06/02 10:07:29;;;;;;;;;13.75;13.50;;;;;26.74;46.80;100788.63;5057235;28;45865;-88
2021/06/02 10:10:07;;;;;;;;;16.00;14.00;;;;;26.80;46.21;100798.28;5057506;28;45338;-87
2021/06/02 10:12:32;;;;;;;;;12.50;12.25;;;;;26.66;46.10;100801.22;5056626;28;45575;-84
2021/06/02 10:14:59;;;;;;;;;18.75;17.25;;;;;26.66;47.04;100795.91;5059325;28;45334;-82
2021/06/02 10:17:29;;;;;;;;;19.00;13.75;;;;;26.73;47.35;100790.41;5059483;28;45747;-82
2021/06/02 10:19:56;;;;;;;;;15.25;15.25;;;;;26.88;46.82;100794.53;5062023;28;45546;-83
2021/06/02 10:22:30;;;;;;;;;15.50;14.50;;;;;26.94;46.44;100796.16;5058067;28;45589;-84
2021/06/02 10:25:01;;;;;;;;;16.00;16.00;;;;;26.93;46.29;100798.88;5059865;28;47486;-86
2021/06/02 10:27:27;;;;;;;;;17.00;15.75;;;;;26.95;45.86;100799.69;5063248;28;45369;-82
2021/06/02 10:29:54;;;;;;;;;15.50;14.25;;;;;26.95;45.77;100805.00;5061221;28;45370;-87
2021/06/02 10:32:21;;;;;;;;;16.00;14.25;;;;;26.91;46.22;100804.22;5058956;28;45456;-88
2021/06/02 10:34:48;;;;;;;;;15.25;12.50;;;;;26.97;45.23;100816.47;5076095;27;47768;-84
2021/06/02 10:37:16;;;;;;;;;17.25;16.25;;;;;26.93;45.52;100809.50;5061504;28;45500;-86
2021/06/02 10:39:46;;;;;;;;;15.25;13.75;;;;;26.97;45.98;100801.44;5058078;28;45235;-84
2021/06/02 10:42:20;;;;;;;;;13.00;13.00;;;;;27.02;45.53;100811.94;5058238;28;45311;-85
2021/06/02 10:44:51;;;;;;;;;17.25;17.25;;;;;27.14;45.51;100813.41;5058406;28;45985;-84
2021/06/02 10:47:25;;;;;;;;;17.00;17.00;;;;;27.27;45.60;100819.28;5056499;28;45921;-85
2021/06/02 10:49:51;;;;;;;;;19.75;18.75;;;;;27.30;46.34;100801.50;5063546;28;45244;-82
2021/06/02 10:52:52;;;;;;;;;17.00;15.75;;;;;27.33;46.12;100824.47;5060107;28;45527;-83
2021/06/02 10:55:40;;;;;;;;;13.50;13.50;;;;;27.27;46.59;100812.22;5022472;28;45252;-83
2021/06/02 10:58:45;;;;;;;;;15.25;14.75;;;;;27.34;46.11;100815.59;5043881;28;45181;-84
2021/06/02 11:01:17;;;;;;;;;16.50;16.00;;;;;27.44;45.65;100825.13;5032714;28;45464;-82
2021/06/02 11:03:45;;;;;;;;;14.75;14.75;;;;;27.49;45.96;100820.53;5035813;28;45448;-86
2021/06/02 11:06:13;;;;;;;;;17.75;17.25;;;;;27.57;45.92;100838.09;5038227;28;46056;-84
2021/06/02 11:09:05;;;;;;;;;16.00;15.25;;;;;27.62;45.96;100821.09;5054296;28;45762;-92
2021/06/02 11:11:35;;;;;;;;;16.00;14.50;;;;;27.63;46.06;100824.63;5063986;28;45234;-87
2021/06/02 11:14:13;;;;;;;;;15.75;15.00;;;;;27.67;45.46;100842.25;5053306;28;45637;-80
2021/06/02 11:16:45;;;;;;;;;16.75;14.00;;;;;27.76;45.00;100838.47;5038501;28;46204;-85
2021/06/02 11:19:12;;;;;;;;;11.50;11.50;;;;;27.81;44.08;100825.94;5038662;28;45832;-87
2021/06/02 11:21:53;;;;;;;;;14.25;13.25;;;;;27.81;44.23;100824.13;5046161;28;45256;-83
2021/06/02 11:24:33;;;;;;;;;14.00;12.25;;;;;27.83;44.26;100828.53;5063356;28;45634;-89
2021/06/02 11:27:14;;;;;;;;;17.25;14.00;;;;;27.95;44.43;100823.78;5050665;28;45358;-86
2021/06/02 11:29:51;;;;;;;;;24.25;18.00;;;;;27.97;43.71;100823.72;5039720;28;45433;-88
2021/06/02 11:32:19;;;;;;;;;25.75;24.75;;;;;27.98;43.97;100820.16;5038241;28;45350;-86
2021/06/02 11:34:49;;;;;;;;;23.50;20.25;;;;;27.98;44.22;100822.81;5040087;28;45325;-89
2021/06/02 11:37:16;;;;;;;;;14.50;14.50;;;;;28.00;44.26;100825.41;5039155;28;45908;-85
2021/06/02 11:39:44;;;;;;;;;14.00;14.00;;;;;28.11;43.83;100844.66;5038269;28;45390;-84
2021/06/02 11:42:25;;;;;;;;;14.75;13.75;;;;;27.99;43.54;100832.53;5055439;28;45289;-90
2021/06/02 11:44:56;;;;;;;;;15.50;14.50;;;;;28.05;43.48;100832.34;5061509;28;45909;-84
2021/06/02 11:47:22;;;;;;;;;12.25;12.25;;;;;27.98;43.77;100830.78;5056994;28;45367;-85
2021/06/02 11:49:48;;;;;;;;;18.75;15.25;;;;;28.10;43.24;100842.91;5055154;28;45487;-83
2021/06/02 11:52:17;;;;;;;;;13.00;12.25;;;;;28.12;43.20;100854.38;5061245;28;45394;-83
2021/06/02 11:54:49;;;;;;;;;15.25;12.00;;;;;28.09;43.46;100854.47;5062445;28;45540;-83